Time,TemperatureF,DewpointF,PressureIn,WindDirection,WindDirectionDegrees,WindSpeedMPH,WindSpeedGustMPH,Humidity,HourlyPrecipIn,Conditions,Clouds,dailyrainin,SoftwareType,DateUTC
2013-03-29 00:00:00,34.9,19.5,30.06,North,357,0.0,0.0,53,0.00,,FEW088,0.00,VWS V14.01,2013-03-29 06:00:00,
2013-03-29 00:05:00,34.9,19.1,30.06,North,357,0.0,0.0,52,0.00,,FEW088,0.00,VWS V14.01,2013-03-29 06:05:00,
2013-03-29 00:10:00,35.0,19.2,30.06,North,357,0.0,0.0,52,0.00,,FEW088,0.00,VWS V14.01,2013-03-29 06:10:00,
2013-03-29 00:15:00,34.9,20.8,30.03,North,357,0.0,0.0,56,0.00,,FEW088,0.00,VWS V14.01,2013-03-29 06:15:00,
2013-03-29 00:20:00,34.4,19.9,30.03,North,357,0.0,0.0,55,0.00,,FEW088,0.00,VWS V14.01,2013-03-29 06:20:00,
2013-03-29 00:25:00,34.4,19.0,30.03,North,357,0.0,0.0,53,0.00,,FEW088,0.00,VWS V14.01,2013-03-29 06:25:00,
2013-03-29 00:30:00,34.6,20.1,30.03,North,357,0.0,0.0,55,0.00,,FEW088,0.00,VWS V14.01,2013-03-29 06:30:00,
2013-03-29 00:35:00,34.3,20.2,30.03,North,357,0.0,0.0,56,0.00,,FEW088,0.00,VWS V14.01,2013-03-29 06:35:00,
2013-03-29 00:40:00,33.7,20.1,30.03,North,357,0.0,0.0,57,0.00,,FEW088,0.00,VWS V14.01,2013-03-29 06:40:00,
2013-03-29 00:45:00,33.4,20.6,30.05,North,357,0.0,0.0,59,0.00,,FEW088,0.00,VWS V14.01,2013-03-29 06:45:00,
2013-03-29 00:50:00,33.1,19.9,30.05,North,357,0.0,0.0,58,0.00,,FEW088,0.00,VWS V14.01,2013-03-29 06:50:00,
2013-03-29 00:55:00,32.8,20.5,30.05,North,357,0.0,0.0,60,0.00,,FEW088,0.00,VWS V14.01,2013-03-29 06:55:00,
2013-03-29 01:00:00,32.5,19.8,30.06,North,357,0.0,0.0,59,0.00,,FEW088,0.00,VWS V14.01,2013-03-29 07:00:00,
2013-03-29 01:05:00,32.4,20.5,30.06,North,357,0.0,0.0,61,0.00,,FEW088,0.00,VWS V14.01,2013-03-29 07:05:00,
2013-03-29 01:10:00,32.1,20.2,30.06,North,357,0.0,0.0,61,0.00,,SKC,0.00,VWS V14.01,2013-03-29 07:10:00,
2013-03-29 01:15:00,31.5,19.6,30.06,North,357,0.0,0.0,61,0.00,,SKC,0.00,VWS V14.01,2013-03-29 07:15:00,
2013-03-29 01:20:00,31.2,19.7,30.06,North,357,0.0,0.0,62,0.00,,SKC,0.00,VWS V14.01,2013-03-29 07:20:00,
2013-03-29 01:25:00,31.0,19.5,30.06,North,357,0.0,0.0,62,0.00,,SKC,0.00,VWS V14.01,2013-03-29 07:25:00,
2013-03-29 01:30:00,31.0,18.8,30.06,North,357,0.0,0.0,60,0.00,,SKC,0.00,VWS V14.01,2013-03-29 07:30:00,
2013-03-29 01:35:00,31.2,18.5,30.06,North,357,0.0,0.0,59,0.00,,SKC,0.00,VWS V14.01,2013-03-29 07:35:00,
2013-03-29 01:40:00,31.2,19.3,30.06,North,357,0.0,0.0,61,0.00,,SKC,0.00,VWS V14.01,2013-03-29 07:40:00,
2013-03-29 01:45:00,31.3,18.2,30.06,NNW,344,0.0,0.0,58,0.00,,SKC,0.00,VWS V14.01,2013-03-29 07:45:00,
2013-03-29 01:50:00,31.5,18.4,30.06,NNW,344,0.0,0.0,58,0.00,,SKC,0.00,VWS V14.01,2013-03-29 07:50:00,
2013-03-29 01:55:00,31.3,19.0,30.06,NNW,344,0.0,0.0,60,0.00,,SKC,0.00,VWS V14.01,2013-03-29 07:55:00,
2013-03-29 02:00:00,30.9,19.0,30.07,NNW,344,0.0,0.0,61,0.00,,SKC,0.00,VWS V14.01,2013-03-29 08:00:00,
2013-03-29 02:05:00,30.6,19.1,30.07,NNW,344,0.0,0.0,62,0.00,,SKC,0.00,VWS V14.01,2013-03-29 08:05:00,
2013-03-29 02:10:00,30.0,20.0,30.07,NNW,344,0.0,0.0,66,0.00,,SKC,0.00,VWS V14.01,2013-03-29 08:10:00,
2013-03-29 02:15:00,29.7,19.4,30.07,NNW,344,0.0,0.0,65,0.00,,SKC,0.00,VWS V14.01,2013-03-29 08:15:00,
2013-03-29 02:20:00,29.4,20.2,30.07,NNW,345,0.0,0.0,68,0.00,,SKC,0.00,VWS V14.01,2013-03-29 08:20:00,
2013-03-29 02:25:00,29.1,20.2,30.07,NNW,345,0.0,0.0,69,0.00,,SKC,0.00,VWS V14.01,2013-03-29 08:25:00,
2013-03-29 02:30:00,28.8,19.6,30.07,NNW,345,0.0,0.0,68,0.00,,SKC,0.00,VWS V14.01,2013-03-29 08:30:00,
2013-03-29 02:35:00,28.7,19.8,30.07,NNW,345,0.0,0.0,69,0.00,,SKC,0.00,VWS V14.01,2013-03-29 08:35:00,
2013-03-29 02:40:00,28.4,20.2,30.07,NNW,345,0.0,0.0,71,0.00,,SKC,0.00,VWS V14.01,2013-03-29 08:40:00,
2013-03-29 02:45:00,28.4,19.9,30.09,NNW,345,0.0,0.0,70,0.00,,SKC,0.00,VWS V14.01,2013-03-29 08:45:00,
2013-03-29 02:50:00,28.2,19.7,30.09,NNW,345,0.0,0.0,70,0.00,,SKC,0.00,VWS V14.01,2013-03-29 08:50:00,
2013-03-29 02:55:00,27.9,19.7,30.09,NNW,345,0.0,0.0,71,0.00,,SKC,0.00,VWS V14.01,2013-03-29 08:55:00,
2013-03-29 03:00:00,27.6,19.4,30.09,NNW,345,0.0,0.0,71,0.00,,SKC,0.00,VWS V14.01,2013-03-29 09:00:00,
2013-03-29 03:05:00,27.5,19.4,30.09,NNW,345,0.0,0.0,71,0.00,,SKC,0.00,VWS V14.01,2013-03-29 09:05:00,
2013-03-29 03:10:00,27.6,19.4,30.09,NNW,345,0.0,0.0,71,0.00,,SKC,0.00,VWS V14.01,2013-03-29 09:10:00,
2013-03-29 03:15:00,27.6,19.4,30.09,NNW,345,0.0,0.0,71,0.00,,SKC,0.00,VWS V14.01,2013-03-29 09:15:00,
2013-03-29 03:20:00,27.6,19.1,30.09,NNW,345,0.0,0.0,70,0.00,,SKC,0.00,VWS V14.01,2013-03-29 09:20:00,
2013-03-29 03:25:00,27.6,19.1,30.09,NNW,345,0.0,0.0,70,0.00,,SKC,0.00,VWS V14.01,2013-03-29 09:25:00,
2013-03-29 03:30:00,27.6,19.1,30.09,NNW,345,0.0,0.0,70,0.00,,SKC,0.00,VWS V14.01,2013-03-29 09:30:00,
2013-03-29 03:35:00,27.6,18.8,30.09,NNW,345,0.0,0.0,69,0.00,,SKC,0.00,VWS V14.01,2013-03-29 09:35:00,
2013-03-29 03:40:00,27.5,19.0,30.09,NNW,345,0.0,0.0,70,0.00,,SKC,0.00,VWS V14.01,2013-03-29 09:40:00,
2013-03-29 03:45:00,27.5,18.7,30.09,SE,132,0.0,0.0,69,0.00,,SKC,0.00,VWS V14.01,2013-03-29 09:45:00,
2013-03-29 03:50:00,27.6,18.4,30.09,SE,132,0.0,0.0,68,0.00,,SKC,0.00,VWS V14.01,2013-03-29 09:50:00,
2013-03-29 03:55:00,27.5,18.7,30.09,SE,132,0.0,0.0,69,0.00,,SKC,0.00,VWS V14.01,2013-03-29 09:55:00,
2013-03-29 04:00:00,27.5,18.7,30.09,SE,132,0.0,0.0,69,0.00,,SKC,0.00,VWS V14.01,2013-03-29 10:00:00,
2013-03-29 04:05:00,27.3,18.5,30.09,SE,132,0.0,0.0,69,0.00,,SKC,0.00,VWS V14.01,2013-03-29 10:05:00,
2013-03-29 04:10:00,27.2,18.0,30.09,SE,132,0.0,0.0,68,0.00,,SKC,0.00,VWS V14.01,2013-03-29 10:10:00,
2013-03-29 04:15:00,26.9,17.8,30.10,SE,132,0.0,0.0,68,0.00,,SKC,0.00,VWS V14.01,2013-03-29 10:15:00,
2013-03-29 04:20:00,27.0,17.2,30.10,SE,132,0.0,0.0,66,0.00,,SKC,0.00,VWS V14.01,2013-03-29 10:20:00,
2013-03-29 04:25:00,27.6,17.0,30.10,SE,137,0.0,0.0,64,0.00,,SKC,0.00,VWS V14.01,2013-03-29 10:25:00,
2013-03-29 04:30:00,27.9,18.4,30.11,SE,137,0.0,0.0,67,0.00,,SKC,0.00,VWS V14.01,2013-03-29 10:30:00,
2013-03-29 04:35:00,27.8,18.3,30.11,SE,137,0.0,0.0,67,0.00,,SKC,0.00,VWS V14.01,2013-03-29 10:35:00,
2013-03-29 04:40:00,27.5,18.3,30.11,SE,137,0.0,0.0,68,0.00,,SKC,0.00,VWS V14.01,2013-03-29 10:40:00,
2013-03-29 04:45:00,27.2,17.7,30.11,SE,137,0.0,0.0,67,0.00,,SKC,0.00,VWS V14.01,2013-03-29 10:45:00,
2013-03-29 04:50:00,26.9,17.8,30.11,SE,137,0.0,0.0,68,0.00,,SKC,0.00,VWS V14.01,2013-03-29 10:50:00,
2013-03-29 04:55:00,26.6,17.8,30.11,SE,137,0.0,0.0,69,0.00,,SKC,0.00,VWS V14.01,2013-03-29 10:55:00,
2013-03-29 05:00:00,26.4,18.0,30.12,SE,137,0.0,0.0,70,0.00,,SKC,0.00,VWS V14.01,2013-03-29 11:00:00,
2013-03-29 05:05:00,26.1,17.3,30.12,SE,137,0.0,0.0,69,0.00,,SKC,0.00,VWS V14.01,2013-03-29 11:05:00,
2013-03-29 05:10:00,26.0,17.6,30.12,SE,137,0.0,0.0,70,0.00,,SKC,0.00,VWS V14.01,2013-03-29 11:10:00,
2013-03-29 05:15:00,26.0,17.6,30.13,SE,137,0.0,0.0,70,0.00,,SKC,0.00,VWS V14.01,2013-03-29 11:15:00,
2013-03-29 05:20:00,25.8,17.4,30.13,SE,137,0.0,0.0,70,0.00,,SKC,0.00,VWS V14.01,2013-03-29 11:20:00,
2013-03-29 05:25:00,25.7,17.6,30.13,SE,137,0.0,0.0,71,0.00,,SKC,0.00,VWS V14.01,2013-03-29 11:25:00,
2013-03-29 05:30:00,25.6,17.5,30.13,SE,137,0.0,0.0,71,0.00,,SKC,0.00,VWS V14.01,2013-03-29 11:30:00,
2013-03-29 05:35:00,25.6,17.5,30.13,SE,137,0.0,0.0,71,0.00,,SKC,0.00,VWS V14.01,2013-03-29 11:35:00,
2013-03-29 05:40:00,25.6,17.5,30.13,SE,137,0.0,0.0,71,0.00,,SKC,0.00,VWS V14.01,2013-03-29 11:40:00,
2013-03-29 05:45:00,25.3,17.2,30.14,SE,137,0.0,0.0,71,0.00,,SKC,0.00,VWS V14.01,2013-03-29 11:45:00,
2013-03-29 05:50:00,25.1,17.4,30.14,SE,137,0.0,0.0,72,0.00,,SKC,0.00,VWS V14.01,2013-03-29 11:50:00,
2013-03-29 05:55:00,25.1,17.7,30.14,SE,137,0.0,0.0,73,0.00,,SKC,0.00,VWS V14.01,2013-03-29 11:55:00,
2013-03-29 06:00:00,25.0,17.6,30.14,SE,137,0.0,0.0,73,0.00,,SKC,0.00,VWS V14.01,2013-03-29 12:00:00,
2013-03-29 06:05:00,25.0,17.6,30.14,SE,137,0.0,0.0,73,0.00,,SKC,0.00,VWS V14.01,2013-03-29 12:05:00,
2013-03-29 06:10:00,24.8,17.4,30.14,SE,137,0.0,0.0,73,0.00,,SKC,0.00,VWS V14.01,2013-03-29 12:10:00,
2013-03-29 06:15:00,24.8,17.4,30.15,SE,137,0.0,0.0,73,0.00,,SKC,0.00,VWS V14.01,2013-03-29 12:15:00,
2013-03-29 06:20:00,24.7,17.3,30.15,SE,137,0.0,0.0,73,0.00,,SKC,0.00,VWS V14.01,2013-03-29 12:20:00,
2013-03-29 06:25:00,24.7,17.0,30.15,SE,137,0.0,0.0,72,0.00,,SKC,0.00,VWS V14.01,2013-03-29 12:25:00,
2013-03-29 06:30:00,24.8,17.1,30.15,SE,137,0.0,0.0,72,0.00,,SKC,0.00,VWS V14.01,2013-03-29 12:30:00,
2013-03-29 06:35:00,24.8,17.1,30.15,SE,137,0.0,0.0,72,0.00,,SKC,0.00,VWS V14.01,2013-03-29 12:35:00,
2013-03-29 06:40:00,24.8,17.1,30.15,SE,137,0.0,0.0,72,0.00,,BKN087,0.00,VWS V14.01,2013-03-29 12:40:00,
2013-03-29 06:45:00,25.0,17.3,30.15,SE,137,0.0,0.0,72,0.00,,BKN087,0.00,VWS V14.01,2013-03-29 12:45:00,
2013-03-29 06:50:00,25.0,17.3,30.15,SE,137,0.0,0.0,72,0.00,,BKN087,0.00,VWS V14.01,2013-03-29 12:50:00,
2013-03-29 06:55:00,24.8,17.1,30.15,SE,137,0.0,0.0,72,0.00,,BKN087,0.00,VWS V14.01,2013-03-29 12:55:00,
2013-03-29 07:00:00,24.8,16.8,30.16,SE,137,0.0,0.0,71,0.00,,BKN087,0.00,VWS V14.01,2013-03-29 13:00:00,
2013-03-29 07:05:00,24.7,16.6,30.16,SE,137,0.0,0.0,71,0.00,,BKN087,0.00,VWS V14.01,2013-03-29 13:05:00,
2013-03-29 07:10:00,24.4,16.7,30.16,SE,137,0.0,0.0,72,0.00,,BKN087,0.00,VWS V14.01,2013-03-29 13:10:00,
2013-03-29 07:15:00,24.4,17.0,30.19,SE,137,0.0,0.0,73,0.00,,BKN087,0.00,VWS V14.01,2013-03-29 13:15:00,
2013-03-29 07:20:00,24.5,17.1,30.19,SE,137,0.0,0.0,73,0.00,,BKN087,0.00,VWS V14.01,2013-03-29 13:20:00,
2013-03-29 07:25:00,24.4,17.0,30.19,SE,137,0.0,0.0,73,0.00,,BKN087,0.00,VWS V14.01,2013-03-29 13:25:00,
2013-03-29 07:30:00,24.5,16.8,30.18,SE,137,0.0,0.0,72,0.00,,BKN087,0.00,VWS V14.01,2013-03-29 13:30:00,
2013-03-29 07:35:00,24.4,16.7,30.18,SE,137,0.0,0.0,72,0.00,,BKN087,0.00,VWS V14.01,2013-03-29 13:35:00,
2013-03-29 07:40:00,24.2,16.8,30.18,SE,137,0.0,0.0,73,0.00,,BKN090,0.00,VWS V14.01,2013-03-29 13:40:00,
2013-03-29 07:45:00,24.1,17.0,30.19,SE,137,0.0,0.0,74,0.00,,BKN090,0.00,VWS V14.01,2013-03-29 13:45:00,
2013-03-29 07:50:00,24.2,16.8,30.19,SE,137,0.0,0.0,73,0.00,,BKN090,0.00,VWS V14.01,2013-03-29 13:50:00,
2013-03-29 07:55:00,24.4,17.0,30.19,SE,137,0.0,0.0,73,0.00,,BKN090,0.00,VWS V14.01,2013-03-29 13:55:00,
2013-03-29 08:00:00,24.5,17.1,30.18,SE,137,0.0,0.0,73,0.00,,BKN090,0.00,VWS V14.01,2013-03-29 14:00:00,
2013-03-29 08:05:00,24.5,17.1,30.18,SE,137,0.0,0.0,73,0.00,,BKN090,0.00,VWS V14.01,2013-03-29 14:05:00,
2013-03-29 08:10:00,24.7,17.0,30.18,SE,137,0.0,0.0,72,0.00,,BKN090,0.00,VWS V14.01,2013-03-29 14:10:00,
2013-03-29 08:15:00,24.8,17.1,30.21,SE,137,0.0,0.0,72,0.00,,BKN090,0.00,VWS V14.01,2013-03-29 14:15:00,
2013-03-29 08:20:00,24.8,17.4,30.21,SE,137,0.0,0.0,73,0.00,,BKN090,0.00,VWS V14.01,2013-03-29 14:20:00,
2013-03-29 08:25:00,25.0,17.3,30.21,SE,137,0.0,0.0,72,0.00,,BKN090,0.00,VWS V14.01,2013-03-29 14:25:00,
2013-03-29 08:30:00,25.4,16.3,30.21,NNW,333,0.0,0.0,68,0.00,,BKN090,0.00,VWS V14.01,2013-03-29 14:30:00,
2013-03-29 08:35:00,25.8,16.4,30.21,NNW,333,0.0,0.0,67,0.00,,BKN090,0.00,VWS V14.01,2013-03-29 14:35:00,
2013-03-29 08:40:00,26.3,16.5,30.21,NNW,333,0.0,0.0,66,0.00,,BKN090,0.00,VWS V14.01,2013-03-29 14:40:00,
2013-03-29 08:45:00,26.7,16.9,30.20,NNW,333,0.0,0.0,66,0.00,,BKN090,0.00,VWS V14.01,2013-03-29 14:45:00,
2013-03-29 08:50:00,26.9,16.7,30.20,NNW,333,0.0,0.0,65,0.00,,BKN090,0.00,VWS V14.01,2013-03-29 14:50:00,
2013-03-29 08:55:00,27.2,16.6,30.20,NNW,333,0.0,0.0,64,0.00,,BKN090,0.00,VWS V14.01,2013-03-29 14:55:00,
2013-03-29 09:00:00,27.3,16.8,30.20,NNW,333,0.0,0.0,64,0.00,,BKN090,0.00,VWS V14.01,2013-03-29 15:00:00,
2013-03-29 09:05:00,27.6,16.7,30.20,NNW,333,0.0,0.0,63,0.00,,BKN090,0.00,VWS V14.01,2013-03-29 15:05:00,
2013-03-29 09:10:00,27.8,16.9,30.20,NNW,333,0.0,0.0,63,0.00,,BKN094,0.00,VWS V14.01,2013-03-29 15:10:00,
2013-03-29 09:15:00,28.1,16.8,30.20,NNW,333,0.0,0.0,62,0.00,,BKN094,0.00,VWS V14.01,2013-03-29 15:15:00,
2013-03-29 09:20:00,28.2,16.9,30.20,NNW,333,0.0,0.0,62,0.00,,BKN094,0.00,VWS V14.01,2013-03-29 15:20:00,
2013-03-29 09:25:00,28.4,16.7,30.20,NNW,333,0.0,0.0,61,0.00,,BKN094,0.00,VWS V14.01,2013-03-29 15:25:00,
2013-03-29 09:30:00,28.7,17.0,30.19,NNW,333,0.0,0.0,61,0.00,,BKN094,0.00,VWS V14.01,2013-03-29 15:30:00,
2013-03-29 09:35:00,29.0,16.9,30.19,NNW,333,0.0,0.0,60,0.00,,BKN094,0.00,VWS V14.01,2013-03-29 15:35:00,
2013-03-29 09:40:00,29.1,17.3,30.19,NNW,333,0.0,0.0,61,0.00,,BKN092,0.00,VWS V14.01,2013-03-29 15:40:00,
2013-03-29 09:45:00,29.3,17.1,30.19,NNW,333,0.0,0.0,60,0.00,,BKN092,0.00,VWS V14.01,2013-03-29 15:45:00,
2013-03-29 09:50:00,29.7,17.5,30.19,NNW,333,0.0,0.0,60,0.00,,BKN092,0.00,VWS V14.01,2013-03-29 15:50:00,
2013-03-29 09:55:00,30.1,17.9,30.19,NNW,333,0.0,0.0,60,0.00,,BKN092,0.00,VWS V14.01,2013-03-29 15:55:00,
2013-03-29 10:00:00,30.4,17.8,30.18,NNW,328,0.0,0.0,59,0.00,,BKN092,0.00,VWS V14.01,2013-03-29 16:00:00,
2013-03-29 10:05:00,30.6,18.0,30.18,NW,326,0.0,0.0,59,0.00,,BKN092,0.00,VWS V14.01,2013-03-29 16:05:00,
2013-03-29 10:10:00,30.9,17.5,30.18,NW,326,0.0,0.0,57,0.00,,BKN092,0.00,VWS V14.01,2013-03-29 16:10:00,
2013-03-29 10:15:00,31.2,17.8,30.19,NW,326,0.0,0.0,57,0.00,,BKN092,0.00,VWS V14.01,2013-03-29 16:15:00,
2013-03-29 10:20:00,31.6,18.1,30.19,NW,326,0.0,0.0,57,0.00,,BKN092,0.00,VWS V14.01,2013-03-29 16:20:00,
2013-03-29 10:25:00,32.1,18.2,30.19,NW,326,0.0,0.0,56,0.00,,BKN092,0.00,VWS V14.01,2013-03-29 16:25:00,
2013-03-29 10:30:00,32.4,18.5,30.19,NW,326,0.0,0.0,56,0.00,,BKN092,0.00,VWS V14.01,2013-03-29 16:30:00,
2013-03-29 10:35:00,32.8,17.6,30.19,NW,326,0.0,0.0,53,0.00,,BKN092,0.00,VWS V14.01,2013-03-29 16:35:00,
2013-03-29 10:40:00,33.1,18.3,30.19,NW,326,0.0,0.0,54,0.00,,BKN092,0.00,VWS V14.01,2013-03-29 16:40:00,
2013-03-29 10:45:00,33.5,18.2,30.17,NW,326,0.0,0.0,53,0.00,,BKN092,0.00,VWS V14.01,2013-03-29 16:45:00,
2013-03-29 10:50:00,34.0,18.2,30.17,NW,326,0.0,0.0,52,0.00,,BKN092,0.00,VWS V14.01,2013-03-29 16:50:00,
2013-03-29 10:55:00,34.4,19.0,30.17,NW,326,0.0,0.0,53,0.00,,BKN092,0.00,VWS V14.01,2013-03-29 16:55:00,
2013-03-29 11:00:00,34.7,18.4,30.16,NW,326,0.0,0.0,51,0.00,,BKN092,0.00,VWS V14.01,2013-03-29 17:00:00,
2013-03-29 11:05:00,35.3,18.5,30.16,NW,326,0.0,0.0,50,0.00,,BKN092,0.00,VWS V14.01,2013-03-29 17:05:00,
2013-03-29 11:10:00,35.9,18.6,30.16,NW,326,0.0,0.0,49,0.00,,FEW096,0.00,VWS V14.01,2013-03-29 17:10:00,
2013-03-29 11:15:00,36.5,18.2,30.14,NW,326,0.0,0.0,47,0.00,,FEW096,0.00,VWS V14.01,2013-03-29 17:15:00,
2013-03-29 11:20:00,37.2,18.8,30.14,NW,326,0.0,0.0,47,0.00,,FEW096,0.00,VWS V14.01,2013-03-29 17:20:00,
2013-03-29 11:25:00,38.0,18.0,30.14,NNW,333,0.0,0.0,44,0.00,,FEW096,0.00,VWS V14.01,2013-03-29 17:25:00,
2013-03-29 11:30:00,38.9,18.3,30.13,NNW,333,0.0,0.0,43,0.00,,FEW096,0.00,VWS V14.01,2013-03-29 17:30:00,
2013-03-29 11:35:00,39.6,20.5,30.13,NNW,333,0.0,0.0,46,0.00,,FEW096,0.00,VWS V14.01,2013-03-29 17:35:00,
2013-03-29 11:40:00,40.3,19.0,30.13,NNW,333,0.0,0.0,42,0.00,,FEW220,0.00,VWS V14.01,2013-03-29 17:40:00,
2013-03-29 11:45:00,40.8,19.5,30.12,NNW,334,0.0,0.0,42,0.00,,FEW220,0.00,VWS V14.01,2013-03-29 17:45:00,
2013-03-29 11:50:00,41.5,19.0,30.12,NNW,334,0.0,0.0,40,0.00,,FEW220,0.00,VWS V14.01,2013-03-29 17:50:00,
2013-03-29 11:55:00,41.9,18.8,30.12,NNW,334,0.0,0.0,39,0.00,,FEW220,0.00,VWS V14.01,2013-03-29 17:55:00,
2013-03-29 12:00:00,42.5,17.4,30.11,NNW,334,0.0,0.0,36,0.00,,FEW220,0.00,VWS V14.01,2013-03-29 18:00:00,
2013-03-29 12:05:00,42.9,18.4,30.11,NNW,334,0.0,0.0,37,0.00,,FEW220,0.00,VWS V14.01,2013-03-29 18:05:00,
2013-03-29 12:10:00,43.5,19.0,30.11,NNW,334,0.0,0.0,37,0.00,,FEW220,0.00,VWS V14.01,2013-03-29 18:10:00,
2013-03-29 12:15:00,44.2,19.6,30.11,NW,314,0.0,0.0,37,0.00,,FEW220,0.00,VWS V14.01,2013-03-29 18:15:00,
2013-03-29 12:20:00,45.2,19.2,30.11,NW,309,0.0,0.0,35,0.00,,FEW220,0.00,VWS V14.01,2013-03-29 18:20:00,
2013-03-29 12:25:00,46.0,20.6,30.11,NW,309,0.0,0.0,36,0.00,,FEW220,0.00,VWS V14.01,2013-03-29 18:25:00,
2013-03-29 12:30:00,46.8,20.6,30.08,NW,307,0.0,0.0,35,0.00,,FEW220,0.00,VWS V14.01,2013-03-29 18:30:00,
2013-03-29 12:35:00,47.4,18.3,30.08,NW,323,0.0,0.0,31,0.00,,FEW220,0.00,VWS V14.01,2013-03-29 18:35:00,
2013-03-29 12:40:00,47.4,18.3,30.08,NW,323,0.0,0.0,31,0.00,,SKC,0.00,VWS V14.01,2013-03-29 18:40:00,
2013-03-29 12:45:00,47.9,18.7,30.08,NW,323,0.0,0.0,31,0.00,,SKC,0.00,VWS V14.01,2013-03-29 18:45:00,
2013-03-29 12:50:00,48.5,19.3,30.08,NW,322,0.0,0.0,31,0.00,,SKC,0.00,VWS V14.01,2013-03-29 18:50:00,
2013-03-29 12:55:00,48.9,17.2,30.08,NW,323,0.0,0.0,28,0.00,,SKC,0.00,VWS V14.01,2013-03-29 18:55:00,
2013-03-29 13:00:00,48.9,17.2,30.07,NW,309,0.0,0.0,28,0.00,,SKC,0.00,VWS V14.01,2013-03-29 19:00:00,
2013-03-29 13:05:00,49.2,17.5,30.07,NW,313,0.0,0.0,28,0.00,,SKC,0.00,VWS V14.01,2013-03-29 19:05:00,
2013-03-29 13:10:00,49.4,16.8,30.07,NW,315,0.0,0.0,27,0.00,,SKC,0.00,VWS V14.01,2013-03-29 19:10:00,
2013-03-29 13:15:00,49.1,17.4,30.08,NW,315,0.0,0.0,28,0.00,,SKC,0.00,VWS V14.01,2013-03-29 19:15:00,
2013-03-29 13:20:00,49.4,17.7,30.08,NW,315,0.0,0.0,28,0.00,,SKC,0.00,VWS V14.01,2013-03-29 19:20:00,
2013-03-29 13:25:00,49.1,16.6,30.08,NNW,335,0.0,1.0,27,0.00,,SKC,0.00,VWS V14.01,2013-03-29 19:25:00,
2013-03-29 13:30:00,48.9,17.2,30.07,NW,313,0.0,1.0,28,0.00,,SKC,0.00,VWS V14.01,2013-03-29 19:30:00,
2013-03-29 13:35:00,48.6,17.0,30.07,NW,319,0.0,1.0,28,0.00,,SKC,0.00,VWS V14.01,2013-03-29 19:35:00,
2013-03-29 13:40:00,48.3,18.3,30.07,NW,316,0.0,1.0,30,0.00,,FEW082,0.00,VWS V14.01,2013-03-29 19:40:00,
2013-03-29 13:45:00,48.0,17.3,30.09,NW,316,0.0,2.0,29,0.00,,FEW082,0.00,VWS V14.01,2013-03-29 19:45:00,
2013-03-29 13:50:00,47.9,16.4,30.09,NW,314,0.0,2.0,28,0.00,,FEW082,0.00,VWS V14.01,2013-03-29 19:50:00,
2013-03-29 13:55:00,47.9,16.4,30.09,NW,312,0.0,2.0,28,0.00,,FEW082,0.00,VWS V14.01,2013-03-29 19:55:00,
2013-03-29 14:00:00,47.9,16.4,30.08,NNW,335,0.0,2.0,28,0.00,,FEW082,0.00,VWS V14.01,2013-03-29 20:00:00,
2013-03-29 14:05:00,48.2,16.6,30.08,NW,315,0.0,1.0,28,0.00,,FEW082,0.00,VWS V14.01,2013-03-29 20:05:00,
2013-03-29 14:10:00,48.6,17.0,30.08,NW,319,0.0,1.0,28,0.00,,FEW082,0.00,VWS V14.01,2013-03-29 20:10:00,
2013-03-29 14:15:00,49.2,17.5,30.09,NW,312,0.0,1.0,28,0.00,,FEW082,0.00,VWS V14.01,2013-03-29 20:15:00,
2013-03-29 14:20:00,49.1,17.4,30.09,NNW,331,0.0,1.0,28,0.00,,FEW082,0.00,VWS V14.01,2013-03-29 20:20:00,
2013-03-29 14:25:00,48.9,16.4,30.09,NNW,335,0.0,2.0,27,0.00,,FEW082,0.00,VWS V14.01,2013-03-29 20:25:00,
2013-03-29 14:30:00,48.9,17.2,30.10,NW,325,0.0,2.0,28,0.00,,FEW082,0.00,VWS V14.01,2013-03-29 20:30:00,
2013-03-29 14:35:00,49.1,18.2,30.10,NW,317,1.0,8.0,29,0.00,,FEW082,0.00,VWS V14.01,2013-03-29 20:35:00,
2013-03-29 14:40:00,48.9,18.9,30.10,NW,313,1.0,8.0,30,0.00,,FEW082,0.00,VWS V14.01,2013-03-29 20:40:00,
2013-03-29 14:45:00,49.2,18.3,30.10,North,358,0.0,8.0,29,0.00,,FEW082,0.00,VWS V14.01,2013-03-29 20:45:00,
2013-03-29 14:50:00,49.5,18.6,30.10,NW,309,0.0,8.0,29,0.00,,FEW082,0.00,VWS V14.01,2013-03-29 20:50:00,
2013-03-29 14:55:00,49.6,17.9,30.10,NW,309,0.0,8.0,28,0.00,,FEW082,0.00,VWS V14.01,2013-03-29 20:55:00,
2013-03-29 15:00:00,49.8,17.2,30.09,WNW,300,0.0,8.0,27,0.00,,FEW082,0.00,VWS V14.01,2013-03-29 21:00:00,
2013-03-29 15:05:00,49.9,18.1,30.09,NW,320,0.0,2.0,28,0.00,,FEW082,0.00,VWS V14.01,2013-03-29 21:05:00,
2013-03-29 15:10:00,50.2,19.2,30.09,NW,310,0.0,2.0,29,0.00,,FEW082,0.00,VWS V14.01,2013-03-29 21:10:00,
2013-03-29 15:15:00,50.2,17.5,30.09,NNW,333,0.0,3.0,27,0.00,,FEW082,0.00,VWS V14.01,2013-03-29 21:15:00,
2013-03-29 15:20:00,50.1,18.3,30.09,NW,307,1.0,3.0,28,0.00,,FEW082,0.00,VWS V14.01,2013-03-29 21:20:00,
2013-03-29 15:25:00,49.9,18.1,30.09,NW,311,1.0,4.0,28,0.00,,FEW082,0.00,VWS V14.01,2013-03-29 21:25:00,
2013-03-29 15:30:00,49.9,18.1,30.09,NW,314,0.0,4.0,28,0.00,,FEW082,0.00,VWS V14.01,2013-03-29 21:30:00,
2013-03-29 15:35:00,50.1,18.3,30.09,NW,308,0.0,2.0,28,0.00,,FEW082,0.00,VWS V14.01,2013-03-29 21:35:00,
2013-03-29 15:40:00,50.2,18.4,30.09,NNW,333,0.0,2.0,28,0.00,,FEW088,0.00,VWS V14.01,2013-03-29 21:40:00,
2013-03-29 15:45:00,50.5,16.9,30.09,NW,310,2.0,2.0,26,0.00,,FEW088,0.00,VWS V14.01,2013-03-29 21:45:00,
2013-03-29 15:50:00,50.7,18.0,30.09,NW,322,0.0,3.0,27,0.00,,FEW088,0.00,VWS V14.01,2013-03-29 21:50:00,
2013-03-29 15:55:00,51.0,17.3,30.09,NW,316,0.0,3.0,26,0.00,,FEW088,0.00,VWS V14.01,2013-03-29 21:55:00,
2013-03-29 16:00:00,51.0,17.3,30.08,NW,309,1.0,3.0,26,0.00,,FEW088,0.00,VWS V14.01,2013-03-29 22:00:00,
2013-03-29 16:05:00,51.0,18.2,30.08,NW,311,0.0,2.0,27,0.00,,FEW088,0.00,VWS V14.01,2013-03-29 22:05:00,
2013-03-29 16:10:00,51.0,19.1,30.08,NW,317,1.0,3.0,28,0.00,,FEW088,0.00,VWS V14.01,2013-03-29 22:10:00,
2013-03-29 16:15:00,50.4,17.7,30.09,NW,315,0.0,3.0,27,0.00,,FEW088,0.00,VWS V14.01,2013-03-29 22:15:00,
2013-03-29 16:20:00,50.5,18.6,30.09,NW,313,0.0,3.0,28,0.00,,FEW088,0.00,VWS V14.01,2013-03-29 22:20:00,
2013-03-29 16:25:00,50.2,18.4,30.09,NW,316,0.0,3.0,28,0.00,,FEW088,0.00,VWS V14.01,2013-03-29 22:25:00,
2013-03-29 16:30:00,49.5,18.6,30.09,WNW,300,0.0,3.0,29,0.00,,FEW088,0.00,VWS V14.01,2013-03-29 22:30:00,
2013-03-29 16:35:00,48.8,18.8,30.09,NW,313,1.0,2.0,30,0.00,,FEW089,0.00,VWS V14.01,2013-03-29 22:35:00,
2013-03-29 16:40:00,48.3,18.3,30.09,NW,317,1.0,3.0,30,0.00,,FEW089,0.00,VWS V14.01,2013-03-29 22:40:00,
2013-03-29 16:45:00,48.2,19.0,30.11,NW,310,0.0,3.0,31,0.00,,FEW089,0.00,VWS V14.01,2013-03-29 22:45:00,
2013-03-29 16:50:00,48.3,17.5,30.11,NW,313,0.0,3.0,29,0.00,,FEW089,0.00,VWS V14.01,2013-03-29 22:50:00,
2013-03-29 16:55:00,48.5,19.3,30.11,NW,313,0.0,3.0,31,0.00,,FEW089,0.00,VWS V14.01,2013-03-29 22:55:00,
2013-03-29 17:00:00,48.6,17.8,30.10,NW,314,0.0,3.0,29,0.00,,FEW089,0.00,VWS V14.01,2013-03-29 23:00:00,
2013-03-29 17:05:00,49.1,16.6,30.10,NW,319,0.0,0.0,27,0.00,,FEW089,0.00,VWS V14.01,2013-03-29 23:05:00,
2013-03-29 17:10:00,48.8,19.5,30.10,NW,318,0.0,1.0,31,0.00,,FEW089,0.00,VWS V14.01,2013-03-29 23:10:00,
2013-03-29 17:15:00,48.6,20.8,30.09,NW,318,0.0,1.0,33,0.00,,FEW089,0.00,VWS V14.01,2013-03-29 23:15:00,
2013-03-29 17:20:00,49.1,19.0,30.09,NW,318,0.0,1.0,30,0.00,,FEW089,0.00,VWS V14.01,2013-03-29 23:20:00,
2013-03-29 17:25:00,49.4,18.5,30.09,NNW,328,0.0,1.0,29,0.00,,FEW089,0.00,VWS V14.01,2013-03-29 23:25:00,
2013-03-29 17:30:00,49.2,18.3,30.10,NW,314,0.0,2.0,29,0.00,,FEW089,0.00,VWS V14.01,2013-03-29 23:30:00,
2013-03-29 17:35:00,49.4,17.7,30.10,NW,323,0.0,1.0,28,0.00,,FEW089,0.00,VWS V14.01,2013-03-29 23:35:00,
2013-03-29 17:40:00,49.6,17.9,30.10,NW,314,0.0,2.0,28,0.00,,BKN082,0.00,VWS V14.01,2013-03-29 23:40:00,
2013-03-29 17:45:00,49.8,18.0,30.10,NNW,332,1.0,2.0,28,0.00,,BKN082,0.00,VWS V14.01,2013-03-29 23:45:00,
2013-03-29 17:50:00,49.5,16.9,30.10,NW,308,0.0,2.0,27,0.00,,BKN082,0.00,VWS V14.01,2013-03-29 23:50:00,
2013-03-29 17:55:00,49.5,19.4,30.10,NW,314,0.0,2.0,30,0.00,,BKN082,0.00,VWS V14.01,2013-03-29 23:55:00,
2013-03-29 18:00:00,49.4,18.5,30.10,NW,313,0.0,2.0,29,0.00,,BKN082,0.00,VWS V14.01,2013-03-30 00:00:00,
2013-03-29 18:05:00,48.9,17.2,30.10,WNW,303,0.0,1.0,28,0.00,,BKN082,0.00,VWS V14.01,2013-03-30 00:05:00,
2013-03-29 18:10:00,48.8,18.0,30.10,WNW,303,0.0,1.0,29,0.00,,BKN082,0.00,VWS V14.01,2013-03-30 00:10:00,
2013-03-29 18:15:00,48.8,17.2,30.10,NW,324,0.0,1.0,28,0.00,,BKN082,0.00,VWS V14.01,2013-03-30 00:15:00,
2013-03-29 18:20:00,48.8,17.2,30.10,NW,308,0.0,1.0,28,0.00,,BKN082,0.00,VWS V14.01,2013-03-30 00:20:00,
2013-03-29 18:25:00,48.3,18.3,30.10,NW,323,0.0,1.0,30,0.00,,BKN082,0.00,VWS V14.01,2013-03-30 00:25:00,
2013-03-29 18:30:00,47.9,17.2,30.12,NW,311,0.0,5.0,29,0.00,,BKN082,0.00,VWS V14.01,2013-03-30 00:30:00,
2013-03-29 18:35:00,47.6,18.5,30.12,ENE,61,0.0,1.0,31,0.00,,BKN082,0.00,VWS V14.01,2013-03-30 00:35:00,
2013-03-29 18:40:00,47.4,17.5,30.12,ESE,123,0.0,3.0,30,0.00,,BKN100,0.00,VWS V14.01,2013-03-30 00:40:00,
2013-03-29 18:45:00,47.1,18.0,30.12,North,358,0.0,3.0,31,0.00,,BKN100,0.00,VWS V14.01,2013-03-30 00:45:00,
2013-03-29 18:50:00,47.0,20.1,30.12,NW,316,0.0,3.0,34,0.00,,BKN100,0.00,VWS V14.01,2013-03-30 00:50:00,
2013-03-29 18:55:00,46.7,18.4,30.12,NW,314,0.0,3.0,32,0.00,,BKN100,0.00,VWS V14.01,2013-03-30 00:55:00,
2013-03-29 19:00:00,46.7,19.1,30.12,NNE,15,0.0,3.0,33,0.00,,BKN100,0.00,VWS V14.01,2013-03-30 01:00:00,
2013-03-29 19:05:00,46.5,19.0,30.12,WNW,288,0.0,1.0,33,0.00,,BKN100,0.00,VWS V14.01,2013-03-30 01:05:00,
2013-03-29 19:10:00,46.2,19.4,30.12,NW,316,0.0,1.0,34,0.00,,BKN100,0.00,VWS V14.01,2013-03-30 01:10:00,
2013-03-29 19:15:00,46.1,19.3,30.13,NW,321,0.0,1.0,34,0.00,,BKN100,0.00,VWS V14.01,2013-03-30 01:15:00,
2013-03-29 19:20:00,46.1,18.6,30.13,NW,318,0.0,2.0,33,0.00,,BKN100,0.00,VWS V14.01,2013-03-30 01:20:00,
2013-03-29 19:25:00,46.1,18.6,30.13,NW,316,0.0,2.0,33,0.00,,BKN100,0.00,VWS V14.01,2013-03-30 01:25:00,
2013-03-29 19:30:00,46.1,18.6,30.13,NW,316,1.0,2.0,33,0.00,,BKN100,0.00,VWS V14.01,2013-03-30 01:30:00,
2013-03-29 19:35:00,46.2,18.0,30.13,NW,324,1.0,2.0,32,0.00,,BKN100,0.00,VWS V14.01,2013-03-30 01:35:00,
2013-03-29 19:40:00,46.2,18.7,30.13,North,0,0.0,2.0,33,0.00,,FEW093,0.00,VWS V14.01,2013-03-30 01:40:00,
2013-03-29 19:45:00,46.1,18.6,30.13,NW,318,0.0,3.0,33,0.00,,FEW093,0.00,VWS V14.01,2013-03-30 01:45:00,
2013-03-29 19:50:00,45.8,19.0,30.13,NW,324,0.0,3.0,34,0.00,,FEW093,0.00,VWS V14.01,2013-03-30 01:50:00,
2013-03-29 19:55:00,45.5,19.5,30.13,NW,316,0.0,3.0,35,0.00,,FEW093,0.00,VWS V14.01,2013-03-30 01:55:00,
2013-03-29 20:00:00,45.4,19.4,30.13,NW,316,0.0,3.0,35,0.00,,FEW093,0.00,VWS V14.01,2013-03-30 02:00:00,
2013-03-29 20:05:00,45.1,19.1,30.13,NNW,338,0.0,0.0,35,0.00,,FEW093,0.00,VWS V14.01,2013-03-30 02:05:00,
2013-03-29 20:10:00,44.9,18.9,30.13,NNW,338,0.0,0.0,35,0.00,,FEW093,0.00,VWS V14.01,2013-03-30 02:10:00,
2013-03-29 20:15:00,44.6,20.0,30.12,NNW,337,0.0,0.0,37,0.00,,FEW093,0.00,VWS V14.01,2013-03-30 02:15:00,
2013-03-29 20:20:00,44.2,19.6,30.12,NW,315,0.0,0.0,37,0.00,,FEW093,0.00,VWS V14.01,2013-03-30 02:20:00,
2013-03-29 20:25:00,44.1,20.1,30.12,NW,315,0.0,0.0,38,0.00,,FEW093,0.00,VWS V14.01,2013-03-30 02:25:00,
2013-03-29 20:30:00,43.9,20.0,30.14,NW,315,0.0,0.0,38,0.00,,FEW093,0.00,VWS V14.01,2013-03-30 02:30:00,
2013-03-29 20:35:00,43.6,20.9,30.14,NW,311,0.0,0.0,40,0.00,,FEW093,0.00,VWS V14.01,2013-03-30 02:35:00,
2013-03-29 20:40:00,43.3,20.6,30.14,NW,311,0.0,0.0,40,0.00,,FEW170,0.00,VWS V14.01,2013-03-30 02:40:00,
2013-03-29 20:45:00,43.1,21.0,30.15,NW,311,0.0,0.0,41,0.00,,FEW170,0.00,VWS V14.01,2013-03-30 02:45:00,
2013-03-29 20:50:00,42.8,20.8,30.15,NW,311,0.0,0.0,41,0.00,,FEW170,0.00,VWS V14.01,2013-03-30 02:50:00,
2013-03-29 20:55:00,42.6,21.7,30.15,NW,311,0.0,0.0,43,0.00,,FEW170,0.00,VWS V14.01,2013-03-30 02:55:00,
2013-03-29 21:00:00,42.3,21.4,30.16,NW,311,0.0,0.0,43,0.00,,FEW170,0.00,VWS V14.01,2013-03-30 03:00:00,
2013-03-29 21:05:00,41.9,21.6,30.16,NW,311,0.0,0.0,44,0.00,,FEW170,0.00,VWS V14.01,2013-03-30 03:05:00,
2013-03-29 21:10:00,41.5,21.8,30.16,NW,311,0.0,0.0,45,0.00,,FEW170,0.00,VWS V14.01,2013-03-30 03:10:00,
2013-03-29 21:15:00,41.1,22.4,30.16,NW,311,0.0,0.0,47,0.00,,FEW170,0.00,VWS V14.01,2013-03-30 03:15:00,
2013-03-29 21:20:00,40.6,23.0,30.16,NW,311,0.0,0.0,49,0.00,,FEW170,0.00,VWS V14.01,2013-03-30 03:20:00,
2013-03-29 21:25:00,40.2,22.6,30.16,NW,311,0.0,0.0,49,0.00,,FEW170,0.00,VWS V14.01,2013-03-30 03:25:00,
2013-03-29 21:30:00,39.9,23.7,30.17,NW,311,0.0,0.0,52,0.00,,FEW170,0.00,VWS V14.01,2013-03-30 03:30:00,
2013-03-29 21:35:00,39.9,21.8,30.17,ENE,70,0.0,0.0,48,0.00,,FEW170,0.00,VWS V14.01,2013-03-30 03:35:00,
2013-03-29 21:40:00,40.3,22.7,30.17,NNE,22,0.0,0.0,49,0.00,,FEW210,0.00,VWS V14.01,2013-03-30 03:40:00,
2013-03-29 21:45:00,40.5,23.8,30.17,NNE,22,0.0,0.0,51,0.00,,FEW210,0.00,VWS V14.01,2013-03-30 03:45:00,
2013-03-29 21:50:00,40.5,24.7,30.17,NNE,12,0.0,0.0,53,0.00,,FEW210,0.00,VWS V14.01,2013-03-30 03:50:00,
2013-03-29 21:55:00,40.2,24.9,30.17,NNE,12,0.0,0.0,54,0.00,,FEW210,0.00,VWS V14.01,2013-03-30 03:55:00,
2013-03-29 22:00:00,39.8,24.1,30.18,NNE,12,0.0,0.0,53,0.00,,FEW210,0.00,VWS V14.01,2013-03-30 04:00:00,
2013-03-29 22:05:00,39.2,24.8,30.18,NNE,12,0.0,0.0,56,0.00,,FEW210,0.00,VWS V14.01,2013-03-30 04:05:00,
2013-03-29 22:10:00,38.8,24.9,30.18,NNE,12,0.0,0.0,57,0.00,,FEW210,0.00,VWS V14.01,2013-03-30 04:10:00,
2013-03-29 22:15:00,38.5,25.0,30.16,NNE,12,0.0,0.0,58,0.00,,FEW210,0.00,VWS V14.01,2013-03-30 04:15:00,
2013-03-29 22:20:00,38.2,25.1,30.16,NNE,12,0.0,0.0,59,0.00,,FEW210,0.00,VWS V14.01,2013-03-30 04:20:00,
2013-03-29 22:25:00,38.0,25.4,30.16,NNE,12,0.0,0.0,60,0.00,,FEW210,0.00,VWS V14.01,2013-03-30 04:25:00,
2013-03-29 22:30:00,37.9,25.3,30.17,NNE,12,0.0,0.0,60,0.00,,FEW210,0.00,VWS V14.01,2013-03-30 04:30:00,
2013-03-29 22:35:00,37.8,24.4,30.17,NNE,12,0.0,0.0,58,0.00,,FEW210,0.00,VWS V14.01,2013-03-30 04:35:00,
2013-03-29 22:40:00,37.9,23.2,30.17,NNE,12,0.0,0.0,55,0.00,,FEW210,0.00,VWS V14.01,2013-03-30 04:40:00,
2013-03-29 22:45:00,38.3,22.2,30.17,NNE,12,0.0,0.0,52,0.00,,FEW210,0.00,VWS V14.01,2013-03-30 04:45:00,
2013-03-29 22:50:00,39.1,22.0,30.17,NNE,12,0.0,0.0,50,0.00,,FEW210,0.00,VWS V14.01,2013-03-30 04:50:00,
2013-03-29 22:55:00,39.6,22.5,30.17,NE,41,0.0,0.0,50,0.00,,FEW210,0.00,VWS V14.01,2013-03-30 04:55:00,
2013-03-29 23:00:00,39.9,22.3,30.18,NE,37,0.0,0.0,49,0.00,,FEW210,0.00,VWS V14.01,2013-03-30 05:00:00,
2013-03-29 23:05:00,39.8,24.5,30.18,NE,35,0.0,0.0,54,0.00,,FEW210,0.00,VWS V14.01,2013-03-30 05:05:00,
2013-03-29 23:10:00,39.3,22.2,30.18,NE,35,0.0,0.0,50,0.00,,SCT220,0.00,VWS V14.01,2013-03-30 05:10:00,
2013-03-29 23:15:00,39.5,23.4,30.14,NE,34,0.0,0.0,52,0.00,,SCT220,0.00,VWS V14.01,2013-03-30 05:15:00,
2013-03-29 23:20:00,39.5,23.8,30.14,NE,34,0.0,0.0,53,0.00,,SCT220,0.00,VWS V14.01,2013-03-30 05:20:00,
2013-03-29 23:25:00,39.5,24.7,30.14,NNE,27,0.0,0.0,55,0.00,,SCT220,0.00,VWS V14.01,2013-03-30 05:25:00,
2013-03-29 23:30:00,39.1,24.7,30.14,NNE,27,0.0,0.0,56,0.00,,SCT220,0.00,VWS V14.01,2013-03-30 05:30:00,
2013-03-29 23:35:00,38.6,23.0,30.14,NNE,27,0.0,0.0,53,0.00,,SCT220,0.00,VWS V14.01,2013-03-30 05:35:00,
2013-03-29 23:40:00,38.6,23.8,30.14,NNE,27,0.0,0.0,55,0.00,,FEW180,0.00,VWS V14.01,2013-03-30 05:40:00,
2013-03-29 23:45:00,38.6,23.8,30.14,NNE,27,0.0,0.0,55,0.00,,FEW180,0.00,VWS V14.01,2013-03-30 05:45:00,
2013-03-29 23:50:00,38.3,24.4,30.14,NNE,27,0.0,0.0,57,0.00,,FEW180,0.00,VWS V14.01,2013-03-30 05:50:00,
2013-03-29 23:55:00,38.6,22.5,30.14,NNE,14,0.0,0.0,52,0.00,,FEW180,0.00,VWS V14.01,2013-03-30 05:55:00,